Главная страница
METAR-TAF:

METAR-TAF

Аэропорты :

Солт-Лейк-Сити, Юта, США

широта: 40-46-41N, долгота: 111-58-10W, высота над уровнем моря: 1288 м

Текущие метеонаблюдения

Эта сводка был подготовлена 18 минут назад, в 13:54 UTC
Ветер 5 Узел от западный
Температура 7°C
Влажность 70%
Давление 1026 hPa
Видимость: 16.1 км
небольшая облачность на высоте 4500 фута

METAR: KSLC 241354Z 27005KT 10SM FEW045 07/02 A3029 RMK AO2 SLP238 T00720022

Время: 08:12 (14:12 UTC)

Прогноз

Эта сводка был подготовлена 2 часа и 52 минут назад, в 11:20 UTC
Прогноз действительный с 24-го 12 UTC до 25-го 18 UTC
Ветер 5 Узел от северно-северо-западный
Видимость: 10 км
ясное небо
С 24-го 1800 UTC
Ветер 9 Узел от северный
Видимость: 10 км
Отдельные облака на высоте 12000 фута
С 25-го 0400 UTC
Ветер 6 Узел от юго-юго-восточный
Видимость: 10 км
ясное небо

TAF: KSLC 241120Z 2412/2518 34005KT P6SM SKC FM241800 35009KT P6SM SCT120 FM250400 16006KT P6SM SKC

Метеонаблюдения и прогнозы для более 4000 аэропортов (сводки METAR и TAF).

Имеющиеся станции представлены на карте желтыми и красными точками.

Чтобы увидеть название станции, наведите на нее мышь.

Затем щелкните, чтобы увидеть метеонаблюдения и метеопрогнозы.

Управление картой: чтобы увеличить масштаб, щелкните зеленые кнопки с черным крестиком; чтобы уменьшить масштаб, щелкните зеленую кнопку с тире; для просмотра соседних карт щелкайте зеленые стрелки.


METAR-TAF: